createdAt,value
2023-03-10T00:00:00.529Z,9.31
2023-03-10T00:00:57.095Z,9.29
2023-03-10T00:01:53.682Z,9.14
2023-03-10T00:02:50.552Z,9.34
2023-03-10T00:03:47.409Z,9.39
2023-03-10T00:04:44.066Z,9.49
2023-03-10T00:05:40.816Z,9.10
2023-03-10T00:06:38.551Z,8.78
2023-03-10T00:07:35.196Z,9.37
2023-03-10T00:08:31.918Z,9.56
2023-03-10T00:09:28.489Z,9.58
2023-03-10T00:10:25.133Z,9.56
2023-03-10T00:11:22.520Z,9.55
2023-03-10T00:12:19.305Z,9.59
2023-03-10T00:13:15.886Z,9.57
2023-03-10T00:14:12.592Z,9.60
2023-03-10T00:15:10.145Z,9.58
2023-03-10T00:16:07.839Z,9.69
2023-03-10T00:17:05.135Z,9.66
2023-03-10T00:18:01.683Z,9.62
2023-03-10T00:18:58.431Z,9.66
2023-03-10T00:19:55.076Z,9.69
2023-03-10T00:20:53.544Z,9.66
2023-03-10T00:21:50.190Z,9.52
2023-03-10T00:22:46.953Z,9.18
2023-03-10T00:23:44.005Z,9.22
2023-03-10T00:24:40.651Z,9.30
2023-03-10T00:25:37.274Z,9.44
2023-03-10T00:26:34.025Z,9.39
2023-03-10T00:27:30.676Z,9.43
2023-03-10T00:28:28.139Z,9.43
2023-03-10T00:29:24.882Z,9.49
2023-03-10T00:30:21.582Z,9.32
2023-03-10T00:31:23.415Z,9.43
2023-03-10T00:32:20.227Z,9.38
2023-03-10T00:33:16.902Z,9.37
2023-03-10T00:34:13.557Z,9.37
2023-03-10T00:35:10.435Z,9.28
2023-03-10T00:36:13.564Z,9.24
2023-03-10T00:37:10.303Z,9.36
2023-03-10T00:38:07.033Z,9.56
2023-03-10T00:39:05.363Z,9.40
2023-03-10T00:40:02.122Z,9.00
2023-03-10T00:41:00.496Z,9.06
2023-03-10T00:41:57.173Z,8.97
2023-03-10T00:42:55.124Z,9.22
2023-03-10T00:43:52.801Z,9.12
2023-03-10T00:44:49.467Z,9.08
2023-03-10T00:45:46.060Z,9.14
2023-03-10T00:46:42.856Z,9.00
2023-03-10T00:47:39.574Z,9.13
2023-03-10T00:48:36.354Z,9.13
2023-03-10T00:49:32.945Z,8.90
2023-03-10T00:50:29.557Z,9.07
2023-03-10T00:51:26.128Z,9.12
2023-03-10T00:52:22.723Z,9.13
2023-03-10T00:53:19.665Z,9.09
2023-03-10T00:54:16.278Z,9.04
2023-03-10T00:55:13.057Z,8.89
2023-03-10T00:56:25.008Z,9.05
2023-03-10T00:57:21.660Z,8.93
2023-03-10T00:58:18.386Z,8.60
2023-03-10T00:59:15.052Z,8.90
2023-03-10T01:00:14.907Z,8.87
2023-03-10T01:01:18.500Z,8.66
2023-03-10T01:02:15.140Z,8.77
2023-03-10T01:03:11.762Z,8.78
2023-03-10T01:04:12.897Z,8.68
2023-03-10T01:05:11.118Z,8.79
2023-03-10T01:06:07.824Z,8.67
2023-03-10T01:07:04.385Z,8.74
2023-03-10T01:08:00.935Z,8.88
2023-03-10T01:08:57.640Z,8.96
2023-03-10T01:09:54.239Z,8.72
2023-03-10T01:10:51.655Z,8.80
2023-03-10T01:11:49.178Z,8.71
2023-03-10T01:12:45.837Z,8.68
2023-03-10T01:13:43.296Z,8.65
2023-03-10T01:14:40.016Z,8.78
2023-03-10T01:15:36.592Z,8.67
2023-03-10T01:16:33.785Z,8.72
2023-03-10T01:17:30.454Z,8.70
2023-03-10T01:18:27.173Z,8.76
2023-03-10T01:19:23.796Z,8.82
2023-03-10T01:20:20.553Z,8.76
2023-03-10T01:21:23.816Z,8.79
2023-03-10T01:22:20.495Z,8.28
2023-03-10T01:23:23.494Z,8.64
2023-03-10T01:24:20.276Z,8.68
2023-03-10T01:25:16.926Z,8.82
2023-03-10T01:26:13.729Z,8.85
2023-03-10T01:27:10.350Z,8.70
2023-03-10T01:28:07.020Z,8.77
2023-03-10T01:29:03.739Z,8.79
2023-03-10T01:30:00.347Z,8.76
2023-03-10T01:30:57.030Z,8.78
2023-03-10T01:31:53.756Z,8.74
2023-03-10T01:32:50.476Z,8.67
2023-03-10T01:33:48.058Z,8.13
2023-03-10T01:34:44.868Z,8.84
2023-03-10T01:35:42.109Z,8.84
2023-03-10T01:36:41.696Z,8.92
2023-03-10T01:37:38.360Z,8.91
2023-03-10T01:38:35.562Z,8.88
2023-03-10T01:39:32.247Z,8.83
2023-03-10T01:40:29.604Z,8.74
2023-03-10T01:41:26.609Z,8.92
2023-03-10T01:42:23.484Z,8.92
2023-03-10T01:43:19.989Z,9.06
2023-03-10T01:44:20.132Z,8.99
2023-03-10T01:45:16.715Z,9.07
2023-03-10T01:46:31.652Z,9.08
2023-03-10T01:47:28.868Z,9.10
2023-03-10T01:48:25.519Z,8.91
2023-03-10T01:49:32.520Z,9.14
2023-03-10T01:50:29.371Z,9.15
2023-03-10T01:51:26.732Z,9.26
2023-03-10T01:52:26.855Z,9.12
2023-03-10T01:53:25.685Z,9.20
2023-03-10T01:54:28.881Z,9.28
2023-03-10T01:55:30.228Z,9.29
2023-03-10T01:56:27.025Z,9.33
2023-03-10T01:57:29.844Z,9.29
2023-03-10T01:58:32.660Z,9.25
2023-03-10T01:59:30.071Z,9.34
2023-03-10T02:00:29.534Z,9.05
2023-03-10T02:01:26.286Z,9.38
2023-03-10T02:02:24.840Z,9.42
2023-03-10T02:03:41.004Z,9.45
2023-03-10T02:04:44.457Z,9.50
2023-03-10T02:06:09.701Z,9.56
2023-03-10T02:07:06.982Z,9.52
2023-03-10T02:08:04.657Z,9.49
2023-03-10T02:09:04.130Z,9.53
2023-03-10T02:10:00.935Z,9.45
2023-03-10T02:10:59.481Z,9.54
2023-03-10T02:11:58.629Z,9.61
2023-03-10T02:12:55.357Z,9.61
2023-03-10T02:13:53.124Z,8.89
2023-03-10T02:14:52.687Z,9.41
2023-03-10T02:15:51.127Z,9.57
2023-03-10T02:16:47.857Z,9.62
2023-03-10T02:17:44.925Z,9.57
2023-03-10T02:18:44.257Z,9.72
2023-03-10T02:19:58.240Z,9.72
2023-03-10T02:21:13.643Z,9.64
2023-03-10T02:22:12.473Z,9.65
2023-03-10T02:23:12.570Z,9.62
2023-03-10T02:24:32.036Z,9.56
2023-03-10T02:25:49.102Z,9.66
2023-03-10T02:27:01.532Z,9.66
2023-03-10T02:27:58.869Z,9.61
2023-03-10T02:28:58.339Z,9.44
2023-03-10T02:30:01.217Z,9.60
2023-03-10T02:30:58.375Z,9.58
2023-03-10T02:31:57.138Z,9.34
2023-03-10T02:32:57.876Z,9.49
2023-03-10T02:33:55.597Z,9.58
2023-03-10T02:34:52.236Z,9.51
2023-03-10T02:35:49.374Z,9.49
2023-03-10T02:36:46.231Z,9.22
2023-03-10T02:37:42.920Z,9.23
2023-03-10T02:38:39.481Z,9.38
2023-03-10T02:39:36.100Z,9.40
2023-03-10T02:40:45.161Z,9.35
2023-03-10T02:41:44.997Z,9.38
2023-03-10T02:42:42.046Z,9.31
2023-03-10T02:43:38.682Z,9.43
2023-03-10T02:44:35.854Z,9.40
2023-03-10T02:45:35.852Z,9.36
2023-03-10T02:46:32.647Z,9.19
2023-03-10T02:47:29.402Z,9.31
2023-03-10T02:48:33.311Z,9.00
2023-03-10T02:49:30.394Z,9.32
2023-03-10T02:50:30.175Z,9.34
2023-03-10T02:51:31.020Z,9.38
2023-03-10T02:53:01.907Z,9.23
2023-03-10T02:54:00.384Z,9.30
2023-03-10T02:54:57.498Z,9.45
2023-03-10T02:55:55.080Z,9.38
2023-03-10T02:56:51.748Z,9.31
2023-03-10T02:57:49.039Z,9.06
2023-03-10T02:58:45.612Z,9.01
2023-03-10T02:59:42.338Z,8.98
2023-03-10T03:00:45.261Z,8.74
2023-03-10T03:01:41.936Z,8.79
2023-03-10T03:02:39.053Z,8.60
2023-03-10T03:03:35.823Z,8.60
2023-03-10T03:04:32.951Z,8.52
2023-03-10T03:05:29.824Z,8.41
2023-03-10T03:06:27.154Z,8.31
2023-03-10T03:07:23.719Z,8.44
2023-03-10T03:08:21.124Z,8.38
2023-03-10T03:09:17.725Z,8.38
2023-03-10T03:10:14.287Z,8.42
2023-03-10T03:11:11.070Z,8.39
2023-03-10T03:12:08.230Z,8.35
2023-03-10T03:13:05.651Z,8.32
2023-03-10T03:14:02.250Z,8.18
2023-03-10T03:14:58.857Z,8.17
2023-03-10T03:15:55.489Z,8.27
2023-03-10T03:16:52.089Z,7.98
2023-03-10T03:17:48.931Z,8.33
2023-03-10T03:18:45.614Z,8.17
2023-03-10T03:19:42.204Z,8.06
2023-03-10T03:20:41.026Z,8.13
2023-03-10T03:21:37.834Z,7.94
2023-03-10T03:22:34.516Z,7.85
2023-03-10T03:23:31.054Z,7.64
2023-03-10T03:24:27.972Z,7.89
2023-03-10T03:25:26.673Z,7.78
2023-03-10T03:26:25.302Z,7.73
2023-03-10T03:27:21.885Z,7.87
2023-03-10T03:28:18.583Z,7.63
2023-03-10T03:29:15.359Z,7.66
2023-03-10T03:30:16.094Z,7.50
2023-03-10T03:31:22.342Z,7.30
2023-03-10T03:32:19.022Z,7.65
2023-03-10T03:33:15.661Z,7.70
2023-03-10T03:34:12.495Z,7.62
2023-03-10T03:35:15.946Z,7.48
2023-03-10T03:36:13.605Z,7.38
2023-03-10T03:37:10.224Z,7.34
2023-03-10T03:38:07.387Z,7.34
2023-03-10T03:39:07.111Z,7.32
2023-03-10T03:40:12.834Z,7.01
2023-03-10T03:41:10.265Z,7.30
2023-03-10T03:42:07.379Z,6.78
2023-03-10T03:43:05.008Z,7.40
2023-03-10T03:44:01.599Z,7.36
2023-03-10T03:44:58.188Z,7.38
2023-03-10T03:45:54.923Z,7.42
2023-03-10T03:46:51.565Z,7.43
2023-03-10T03:47:48.479Z,7.34
2023-03-10T03:48:45.095Z,7.32
2023-03-10T03:49:41.880Z,7.33
2023-03-10T03:50:38.463Z,7.29
2023-03-10T03:51:36.622Z,6.98
2023-03-10T03:52:33.752Z,7.15
2023-03-10T03:53:30.740Z,7.07
2023-03-10T03:54:27.289Z,6.97
2023-03-10T03:55:23.867Z,7.06
2023-03-10T03:56:20.454Z,7.23
2023-03-10T03:57:17.088Z,7.24
2023-03-10T03:58:13.639Z,7.46
2023-03-10T03:59:10.331Z,7.68
2023-03-10T04:00:09.177Z,7.52
2023-03-10T04:01:05.866Z,7.51
2023-03-10T04:02:02.668Z,7.57
2023-03-10T04:02:59.311Z,7.58
2023-03-10T04:03:56.023Z,7.51
2023-03-10T04:04:55.815Z,7.43
2023-03-10T04:05:52.815Z,7.48
2023-03-10T04:06:49.349Z,7.52
2023-03-10T04:07:48.326Z,7.54
2023-03-10T04:08:45.022Z,7.42
2023-03-10T04:09:43.059Z,7.48
2023-03-10T04:10:39.609Z,7.45
2023-03-10T04:11:36.754Z,7.51
2023-03-10T04:12:33.593Z,7.71
2023-03-10T04:13:30.189Z,7.73
2023-03-10T04:14:26.871Z,7.57
2023-03-10T04:15:23.786Z,7.66
2023-03-10T04:16:20.648Z,7.56
2023-03-10T04:17:17.445Z,7.34
2023-03-10T04:18:14.091Z,7.50
2023-03-10T04:19:10.726Z,7.54
2023-03-10T04:20:10.032Z,7.64
2023-03-10T04:21:06.684Z,7.69
2023-03-10T04:22:03.457Z,7.66
2023-03-10T04:23:02.116Z,7.69
2023-03-10T04:23:58.741Z,7.61
2023-03-10T04:24:55.438Z,7.60
2023-03-10T04:25:52.190Z,7.61
2023-03-10T04:26:48.917Z,7.49
2023-03-10T04:27:45.556Z,7.61
2023-03-10T04:28:42.193Z,7.76
2023-03-10T04:29:39.141Z,7.74
2023-03-10T04:30:35.746Z,7.78
2023-03-10T04:31:32.470Z,7.72
2023-03-10T04:32:29.182Z,7.62
2023-03-10T04:33:25.881Z,7.68
2023-03-10T04:34:22.507Z,7.84
2023-03-10T04:35:19.196Z,7.70
2023-03-10T04:36:16.770Z,7.65
2023-03-10T04:37:13.516Z,7.65
2023-03-10T04:38:10.412Z,7.66
2023-03-10T04:39:07.158Z,7.70
2023-03-10T04:40:08.397Z,7.67
2023-03-10T04:41:05.289Z,7.69
2023-03-10T04:42:01.948Z,7.65
2023-03-10T04:42:58.531Z,7.54
2023-03-10T04:43:55.077Z,7.55
2023-03-10T04:44:52.382Z,7.56
2023-03-10T04:45:49.248Z,7.53
2023-03-10T04:46:45.891Z,7.45
2023-03-10T04:47:42.656Z,7.42
2023-03-10T04:48:39.964Z,7.43
2023-03-10T04:49:37.388Z,7.42
2023-03-10T04:50:33.980Z,7.58
2023-03-10T04:51:30.675Z,7.55
2023-03-10T04:52:27.300Z,7.52
2023-03-10T04:53:24.033Z,7.51
2023-03-10T04:54:20.662Z,6.77
2023-03-10T04:55:17.612Z,7.44
2023-03-10T04:56:14.470Z,7.40
2023-03-10T04:57:11.034Z,7.39
2023-03-10T04:58:07.661Z,7.35
2023-03-10T04:59:04.357Z,7.36
2023-03-10T05:00:02.869Z,7.14
2023-03-10T05:01:03.576Z,7.36
2023-03-10T05:02:00.597Z,6.89
2023-03-10T05:02:57.357Z,7.42
2023-03-10T05:03:54.503Z,7.15
2023-03-10T05:04:51.308Z,7.42
2023-03-10T05:05:47.959Z,7.24
2023-03-10T05:06:44.552Z,7.52
2023-03-10T05:07:41.394Z,7.30
2023-03-10T05:08:37.962Z,7.05
2023-03-10T05:09:36.940Z,7.73
2023-03-10T05:10:33.643Z,7.76
2023-03-10T05:11:31.033Z,7.74
2023-03-10T05:12:27.766Z,7.67
2023-03-10T05:13:24.435Z,7.58
2023-03-10T05:14:21.211Z,7.52
2023-03-10T05:15:17.844Z,7.43
2023-03-10T05:16:20.949Z,7.48
2023-03-10T05:17:17.639Z,7.31
2023-03-10T05:18:14.418Z,7.14
2023-03-10T05:19:11.100Z,7.04
2023-03-10T05:20:09.693Z,7.05
2023-03-10T05:21:06.345Z,7.02
2023-03-10T05:22:04.856Z,7.04
2023-03-10T05:23:02.174Z,7.16
2023-03-10T05:23:58.837Z,7.14
2023-03-10T05:24:55.484Z,7.09
2023-03-10T05:25:52.120Z,7.10
2023-03-10T05:26:48.780Z,7.08
2023-03-10T05:27:45.366Z,7.07
2023-03-10T05:28:42.124Z,7.17
2023-03-10T05:29:39.665Z,7.04
2023-03-10T05:30:36.351Z,7.03
2023-03-10T05:31:33.068Z,7.31
2023-03-10T05:32:29.749Z,7.28
2023-03-10T05:33:26.457Z,7.40
2023-03-10T05:34:25.411Z,7.42
2023-03-10T05:35:22.016Z,7.20
2023-03-10T05:36:18.837Z,7.27
2023-03-10T05:37:15.506Z,7.43
2023-03-10T05:38:12.117Z,7.54
2023-03-10T05:39:09.567Z,7.58
2023-03-10T05:40:13.660Z,7.60
2023-03-10T05:41:11.179Z,7.73
2023-03-10T05:42:07.853Z,7.78
2023-03-10T05:43:04.436Z,7.81
2023-03-10T05:44:01.146Z,7.81
2023-03-10T05:44:57.716Z,7.83
2023-03-10T05:45:58.930Z,7.88
2023-03-10T05:46:55.665Z,7.83
2023-03-10T05:47:52.287Z,7.86
2023-03-10T05:48:49.096Z,7.79
2023-03-10T05:49:45.935Z,7.35
2023-03-10T05:50:42.465Z,7.96
2023-03-10T05:51:39.218Z,8.04
2023-03-10T05:52:40.496Z,8.11
2023-03-10T05:53:38.048Z,8.19
2023-03-10T05:54:34.686Z,8.41
2023-03-10T05:55:31.336Z,8.41
2023-03-10T05:56:28.064Z,8.42
2023-03-10T05:57:24.692Z,8.40
2023-03-10T05:58:21.790Z,8.26
2023-03-10T05:59:18.480Z,8.51
2023-03-10T06:00:16.024Z,8.47
2023-03-10T06:01:13.299Z,8.59
2023-03-10T06:02:10.070Z,8.59
2023-03-10T06:03:06.751Z,8.64
2023-03-10T06:04:03.975Z,8.45
2023-03-10T06:05:00.655Z,8.69
2023-03-10T06:05:58.391Z,8.70
2023-03-10T06:06:56.227Z,8.76
2023-03-10T06:07:52.926Z,8.80
2023-03-10T06:08:49.798Z,8.86
2023-03-10T06:09:46.542Z,8.93
2023-03-10T06:10:43.196Z,8.99
2023-03-10T06:11:39.802Z,9.05
2023-03-10T06:12:36.703Z,9.14
2023-03-10T06:13:33.475Z,9.23
2023-03-10T06:14:30.070Z,9.17
2023-03-10T06:15:26.918Z,9.28
2023-03-10T06:16:23.550Z,9.25
2023-03-10T06:17:20.172Z,9.17
2023-03-10T06:18:17.654Z,9.19
2023-03-10T06:19:14.220Z,9.24
2023-03-10T06:20:10.951Z,9.27
2023-03-10T06:21:10.477Z,9.32
2023-03-10T06:22:07.175Z,9.35
2023-03-10T06:23:03.775Z,9.30
2023-03-10T06:24:00.671Z,9.46
2023-03-10T06:24:57.332Z,9.41
2023-03-10T06:26:03.085Z,9.50
2023-03-10T06:26:59.656Z,9.47
2023-03-10T06:27:56.210Z,9.61
2023-03-10T06:28:52.881Z,9.62
2023-03-10T06:29:50.417Z,9.64
2023-03-10T06:30:54.935Z,9.61
2023-03-10T06:31:51.733Z,9.70
2023-03-10T06:32:48.435Z,9.45
2023-03-10T06:33:45.142Z,9.43
2023-03-10T06:34:41.817Z,9.56
2023-03-10T06:35:38.413Z,9.71
2023-03-10T06:36:37.391Z,9.60
2023-03-10T06:37:34.131Z,9.54
2023-03-10T06:38:30.821Z,9.42
2023-03-10T06:39:29.133Z,9.55
2023-03-10T06:40:26.130Z,9.60
2023-03-10T06:41:22.767Z,9.62
2023-03-10T06:42:19.495Z,9.64
2023-03-10T06:43:16.234Z,9.66
2023-03-10T06:44:18.813Z,9.67
2023-03-10T06:45:17.223Z,9.62
2023-03-10T06:46:15.306Z,9.60
2023-03-10T06:47:11.881Z,9.66
2023-03-10T06:48:08.677Z,9.63
2023-03-10T06:49:05.261Z,9.69
2023-03-10T06:50:02.968Z,9.65
2023-03-10T06:50:59.660Z,9.70
2023-03-10T06:51:56.404Z,9.42
2023-03-10T06:52:53.374Z,9.59
2023-03-10T06:53:50.126Z,9.50
2023-03-10T06:54:46.746Z,9.56
2023-03-10T06:55:43.559Z,9.69
2023-03-10T06:56:40.176Z,9.68
2023-03-10T06:57:37.941Z,9.76
2023-03-10T06:58:36.356Z,9.81
2023-03-10T06:59:33.040Z,9.89
2023-03-10T07:00:29.899Z,9.98
2023-03-10T07:01:32.075Z,9.99
2023-03-10T07:02:28.745Z,10.05
2023-03-10T07:03:26.418Z,9.90
2023-03-10T07:04:23.060Z,10.08
2023-03-10T07:05:19.801Z,10.06
2023-03-10T07:06:16.531Z,10.11
2023-03-10T07:07:14.822Z,10.17
2023-03-10T07:08:11.530Z,9.91
2023-03-10T07:09:08.166Z,10.15
2023-03-10T07:10:08.156Z,10.26
2023-03-10T07:11:05.149Z,10.30
2023-03-10T07:12:01.906Z,10.19
2023-03-10T07:12:59.122Z,10.60
2023-03-10T07:13:55.811Z,10.52
2023-03-10T07:14:52.539Z,10.56
2023-03-10T07:15:49.242Z,10.60
2023-03-10T07:16:46.759Z,10.75
2023-03-10T07:17:43.511Z,11.06
2023-03-10T07:18:40.552Z,10.88
2023-03-10T07:19:37.526Z,10.80
2023-03-10T07:20:34.214Z,10.61
2023-03-10T07:21:31.723Z,10.78
2023-03-10T07:22:28.336Z,10.89
2023-03-10T07:23:25.676Z,10.80
2023-03-10T07:24:22.573Z,10.55
2023-03-10T07:25:19.555Z,11.00
2023-03-10T07:26:18.750Z,11.05
2023-03-10T07:27:15.474Z,11.40
2023-03-10T07:28:12.232Z,11.62
2023-03-10T07:29:09.198Z,11.31
2023-03-10T07:30:06.703Z,11.40
2023-03-10T07:31:05.119Z,11.68
2023-03-10T07:32:01.791Z,11.56
2023-03-10T07:32:58.382Z,11.83
2023-03-10T07:33:55.078Z,11.73
2023-03-10T07:34:52.086Z,11.70
2023-03-10T07:35:48.819Z,11.19
2023-03-10T07:36:45.598Z,11.36
2023-03-10T07:37:42.300Z,11.66
2023-03-10T07:38:39.173Z,11.97
2023-03-10T07:39:35.713Z,11.87
2023-03-10T07:40:32.429Z,11.99
2023-03-10T07:41:29.061Z,12.06
2023-03-10T07:42:25.694Z,12.00
2023-03-10T07:43:22.286Z,11.86
2023-03-10T07:44:19.057Z,11.33
2023-03-10T07:45:15.699Z,11.82
2023-03-10T07:46:14.649Z,11.82
2023-03-10T07:47:11.413Z,12.03
2023-03-10T07:48:08.057Z,12.23
2023-03-10T07:49:05.039Z,11.92
2023-03-10T07:50:01.990Z,12.05
2023-03-10T07:50:59.333Z,12.11
2023-03-10T07:51:56.119Z,12.05
2023-03-10T07:52:53.084Z,12.16
2023-03-10T07:53:49.862Z,12.12
2023-03-10T07:54:47.003Z,12.07
2023-03-10T07:55:43.794Z,12.49
2023-03-10T07:56:40.378Z,12.56
2023-03-10T07:57:37.113Z,12.85
2023-03-10T07:58:34.476Z,12.68
2023-03-10T07:59:31.205Z,12.50
2023-03-10T08:00:28.389Z,12.44
2023-03-10T08:01:25.235Z,12.75
2023-03-10T08:02:21.864Z,12.91
2023-03-10T08:03:18.617Z,13.02
2023-03-10T08:04:17.247Z,13.20
2023-03-10T08:05:15.031Z,13.05
2023-03-10T08:06:26.972Z,13.09
2023-03-10T08:07:25.852Z,12.79
2023-03-10T08:08:23.269Z,12.75
2023-03-10T08:09:19.865Z,13.32
2023-03-10T08:10:16.591Z,13.34
2023-03-10T08:11:13.356Z,12.91
2023-03-10T08:12:10.270Z,13.07
2023-03-10T08:13:06.855Z,12.28
2023-03-10T08:14:04.383Z,12.77
2023-03-10T08:15:01.146Z,12.83
2023-03-10T08:16:00.172Z,12.85
2023-03-10T08:16:57.698Z,13.20
2023-03-10T08:17:54.666Z,13.16
2023-03-10T08:18:53.747Z,13.27
2023-03-10T08:19:50.477Z,13.33
2023-03-10T08:20:47.032Z,13.33
2023-03-10T08:21:44.010Z,13.07
2023-03-10T08:22:40.635Z,13.31
2023-03-10T08:23:38.257Z,12.99
2023-03-10T08:24:36.634Z,13.25
2023-03-10T08:25:33.272Z,13.18
2023-03-10T08:26:29.853Z,13.19
2023-03-10T08:27:29.011Z,13.39
2023-03-10T08:28:28.863Z,13.25
2023-03-10T08:29:25.511Z,13.29
2023-03-10T08:30:22.172Z,13.17
2023-03-10T08:31:20.699Z,13.34
2023-03-10T08:32:18.009Z,13.04
2023-03-10T08:33:14.747Z,12.86
2023-03-10T08:34:11.352Z,12.88
2023-03-10T08:35:08.523Z,12.88
2023-03-10T08:36:09.630Z,13.16
2023-03-10T08:37:06.528Z,12.71
2023-03-10T08:38:04.341Z,12.90
2023-03-10T08:39:01.097Z,12.30
2023-03-10T08:39:58.949Z,12.69
2023-03-10T08:40:55.703Z,12.67
2023-03-10T08:41:54.677Z,12.62
2023-03-10T08:42:51.681Z,12.55
2023-03-10T08:43:50.629Z,12.71
2023-03-10T08:44:47.298Z,12.92
2023-03-10T08:45:43.970Z,12.94
2023-03-10T08:46:46.596Z,12.99
2023-03-10T08:47:44.095Z,13.09
2023-03-10T08:48:42.747Z,12.62
2023-03-10T08:49:41.293Z,13.07
2023-03-10T08:50:39.796Z,13.18
2023-03-10T08:51:36.645Z,12.95
2023-03-10T08:52:33.514Z,13.12
2023-03-10T08:53:30.278Z,13.25
2023-03-10T08:54:27.500Z,13.25
2023-03-10T08:55:24.879Z,13.06
2023-03-10T08:56:22.808Z,12.86
2023-03-10T08:57:19.434Z,12.98
2023-03-10T08:58:16.897Z,12.95
2023-03-10T08:59:13.650Z,12.74
2023-03-10T09:00:13.031Z,12.80
2023-03-10T09:01:12.225Z,12.74
2023-03-10T09:02:12.268Z,12.72
2023-03-10T09:03:15.390Z,12.67
2023-03-10T09:04:12.265Z,13.07
2023-03-10T09:05:10.491Z,13.18
2023-03-10T09:06:07.590Z,12.92
2023-03-10T09:07:04.289Z,13.03
2023-03-10T09:08:01.012Z,12.99
2023-03-10T09:08:57.923Z,13.09
2023-03-10T09:09:54.636Z,13.24
2023-03-10T09:10:51.304Z,12.85
2023-03-10T09:11:47.891Z,13.04
2023-03-10T09:12:44.580Z,13.37
2023-03-10T09:13:41.398Z,13.59
2023-03-10T09:14:38.563Z,13.76
2023-03-10T09:15:41.023Z,13.79
2023-03-10T09:16:39.566Z,13.70
2023-03-10T09:17:38.256Z,13.82
2023-03-10T09:18:36.289Z,14.02
2023-03-10T09:19:33.137Z,14.27
2023-03-10T09:20:29.826Z,13.97
2023-03-10T09:21:31.949Z,13.75
2023-03-10T09:22:29.835Z,13.89
2023-03-10T09:23:26.479Z,13.58
2023-03-10T09:24:24.969Z,13.47
2023-03-10T09:25:22.417Z,13.70
2023-03-10T09:26:20.251Z,13.55
2023-03-10T09:27:16.887Z,13.57
2023-03-10T09:28:13.571Z,13.59
2023-03-10T09:29:10.412Z,13.43
2023-03-10T09:30:07.426Z,13.95
2023-03-10T09:31:05.981Z,13.91
2023-03-10T09:32:02.578Z,13.74
2023-03-10T09:32:59.222Z,13.74
2023-03-10T09:33:55.905Z,13.61
2023-03-10T09:34:52.465Z,13.52
2023-03-10T09:36:05.941Z,13.42
2023-03-10T09:37:03.682Z,12.89
2023-03-10T09:38:00.398Z,13.11
2023-03-10T09:38:58.241Z,13.50
2023-03-10T09:39:54.886Z,13.60
2023-03-10T09:41:20.734Z,13.56
2023-03-10T09:42:26.035Z,13.30
2023-03-10T09:43:38.616Z,13.24
2023-03-10T09:44:50.592Z,13.19
2023-03-10T09:46:15.088Z,13.46
2023-03-10T09:47:42.935Z,13.13
2023-03-10T09:48:45.568Z,13.19
2023-03-10T09:50:23.898Z,13.29
2023-03-10T09:51:27.663Z,13.53
2023-03-10T09:52:36.809Z,13.51
2023-03-10T09:53:56.960Z,13.48
2023-03-10T09:55:06.475Z,13.64
2023-03-10T09:56:15.738Z,13.82
2023-03-10T09:57:18.911Z,13.67
2023-03-10T09:58:26.592Z,14.38
2023-03-10T09:59:37.464Z,14.32
2023-03-10T10:00:39.141Z,14.27
2023-03-10T10:01:36.622Z,14.26
2023-03-10T10:02:39.197Z,14.42
2023-03-10T10:03:51.459Z,14.43
2023-03-10T10:04:53.580Z,14.27
2023-03-10T10:05:56.303Z,14.27
2023-03-10T10:06:53.096Z,13.89
2023-03-10T10:07:55.179Z,14.18
2023-03-10T10:09:05.530Z,14.61
2023-03-10T10:10:27.565Z,14.62
2023-03-10T10:11:24.363Z,14.37
2023-03-10T10:12:25.007Z,14.05
2023-03-10T10:13:25.264Z,14.42
2023-03-10T10:14:31.805Z,14.37
2023-03-10T10:15:34.928Z,14.16
2023-03-10T10:16:42.493Z,14.35
2023-03-10T10:17:55.024Z,14.45
2023-03-10T10:19:06.874Z,14.56
2023-03-10T10:20:07.165Z,14.28
2023-03-10T10:21:13.108Z,14.07
2023-03-10T10:22:15.782Z,14.04
2023-03-10T10:23:20.078Z,14.06
2023-03-10T10:24:18.259Z,13.98
2023-03-10T10:25:23.790Z,13.89
2023-03-10T10:26:26.476Z,13.93
2023-03-10T10:27:25.150Z,13.61
2023-03-10T10:28:32.928Z,13.61
2023-03-10T10:29:36.564Z,13.44
2023-03-10T10:30:35.022Z,13.97
2023-03-10T10:31:35.567Z,13.81
2023-03-10T10:32:32.776Z,13.74
2023-03-10T10:33:29.648Z,13.90
2023-03-10T10:34:26.253Z,13.99
2023-03-10T10:35:25.394Z,13.92
2023-03-10T10:36:25.296Z,13.69
2023-03-10T10:37:43.086Z,13.52
2023-03-10T10:38:39.755Z,13.38
2023-03-10T10:39:42.482Z,13.46
2023-03-10T10:40:59.427Z,12.99
2023-03-10T10:42:20.173Z,12.66
2023-03-10T10:43:18.978Z,12.73
2023-03-10T10:44:17.504Z,13.08
2023-03-10T10:45:35.387Z,13.07
2023-03-10T10:46:32.906Z,13.05
2023-03-10T10:47:37.291Z,13.14
2023-03-10T10:48:43.058Z,12.80
2023-03-10T10:49:39.762Z,13.00
2023-03-10T10:50:37.617Z,13.06
2023-03-10T10:51:37.585Z,13.17
2023-03-10T10:52:34.173Z,13.02
2023-03-10T10:53:35.536Z,12.70
2023-03-10T10:54:39.102Z,12.41
2023-03-10T10:55:35.832Z,12.30
2023-03-10T10:56:32.529Z,12.23
2023-03-10T10:57:35.333Z,12.15
2023-03-10T10:58:33.721Z,11.71
2023-03-10T10:59:35.507Z,11.90
2023-03-10T11:00:38.339Z,11.71
2023-03-10T11:01:48.598Z,11.93
2023-03-10T11:02:46.306Z,11.79
2023-03-10T11:03:46.789Z,11.58
2023-03-10T11:04:46.038Z,11.57
2023-03-10T11:05:42.737Z,11.56
2023-03-10T11:06:39.528Z,11.72
2023-03-10T11:07:36.138Z,11.75
2023-03-10T11:08:37.539Z,11.69
2023-03-10T11:09:34.115Z,11.39
2023-03-10T11:10:33.338Z,11.12
2023-03-10T11:11:48.318Z,10.94
2023-03-10T11:13:35.699Z,10.86
2023-03-10T11:14:49.802Z,10.67
2023-03-10T11:16:11.919Z,10.69
2023-03-10T11:17:42.997Z,10.94
2023-03-10T11:18:51.149Z,10.98
2023-03-10T11:19:57.241Z,11.08
2023-03-10T11:21:12.839Z,10.85
2023-03-10T11:22:27.914Z,10.75
2023-03-10T11:23:34.703Z,10.88
2023-03-10T11:24:36.398Z,10.93
2023-03-10T11:25:38.934Z,10.86
2023-03-10T11:26:41.208Z,10.80
2023-03-10T11:27:49.820Z,10.64
2023-03-10T11:29:18.876Z,10.62
2023-03-10T11:30:22.824Z,10.50
2023-03-10T11:31:23.545Z,10.38
2023-03-10T11:32:38.535Z,10.42
2023-03-10T11:33:35.174Z,10.38
2023-03-10T11:34:35.967Z,10.38
2023-03-10T11:35:46.035Z,10.47
2023-03-10T11:36:58.083Z,10.43
2023-03-10T11:38:12.695Z,10.38
2023-03-10T11:39:28.935Z,10.42
2023-03-10T11:40:39.595Z,10.39
2023-03-10T11:41:39.791Z,10.22
2023-03-10T11:42:58.371Z,10.27
2023-03-10T11:43:57.821Z,10.46
2023-03-10T11:45:03.622Z,10.74
2023-03-10T11:46:21.430Z,10.85
2023-03-10T11:47:32.877Z,10.70
2023-03-10T11:49:06.460Z,10.90
2023-03-10T11:50:20.697Z,10.85
2023-03-10T11:51:39.501Z,10.76
2023-03-10T11:52:37.975Z,10.78
2023-03-10T11:53:34.503Z,10.73
2023-03-10T11:54:35.045Z,10.59
2023-03-10T11:55:32.310Z,10.59
2023-03-10T11:56:29.075Z,10.69
2023-03-10T11:57:30.853Z,10.72
2023-03-10T11:58:36.659Z,10.79
2023-03-10T11:59:40.013Z,10.89
2023-03-10T12:00:42.279Z,10.77
2023-03-10T12:02:06.115Z,10.79
2023-03-10T12:03:27.376Z,11.01
2023-03-10T12:04:27.435Z,11.08
2023-03-10T12:05:25.948Z,11.01
2023-03-10T12:06:37.629Z,10.77
2023-03-10T12:07:44.213Z,10.57
2023-03-10T12:08:44.014Z,10.66
2023-03-10T12:09:46.535Z,10.74
2023-03-10T12:10:43.862Z,10.71
2023-03-10T12:11:40.754Z,10.66
2023-03-10T12:12:39.934Z,10.74
2023-03-10T12:13:45.187Z,10.41
2023-03-10T12:14:44.475Z,10.26
2023-03-10T12:15:42.244Z,10.43
2023-03-10T12:16:42.027Z,10.19
2023-03-10T12:17:41.214Z,10.29
2023-03-10T12:18:37.859Z,10.17
2023-03-10T12:20:18.692Z,9.97
2023-03-10T12:21:32.322Z,10.02
2023-03-10T12:23:21.639Z,10.11
2023-03-10T12:24:46.925Z,9.86
2023-03-10T12:25:44.765Z,9.99
2023-03-10T12:26:42.259Z,9.91
2023-03-10T12:28:11.875Z,10.03
2023-03-10T12:29:20.960Z,9.69
2023-03-10T12:30:51.057Z,9.91
2023-03-10T12:31:51.342Z,9.99
2023-03-10T12:32:48.311Z,10.25
2023-03-10T12:33:47.361Z,10.40
2023-03-10T12:34:44.135Z,10.43
2023-03-10T12:35:47.952Z,10.38
2023-03-10T12:36:47.346Z,10.42
2023-03-10T12:37:43.924Z,10.53
2023-03-10T12:38:46.755Z,10.52
2023-03-10T12:39:44.428Z,10.66
2023-03-10T12:40:51.719Z,10.68
2023-03-10T12:41:50.728Z,10.56
2023-03-10T12:42:47.325Z,10.57
2023-03-10T12:43:50.783Z,10.74
2023-03-10T12:45:08.273Z,10.70
2023-03-10T12:46:09.103Z,10.67
2023-03-10T12:47:08.810Z,10.78
2023-03-10T12:48:13.850Z,10.44
2023-03-10T12:49:33.630Z,10.47
2023-03-10T12:50:41.693Z,10.52
2023-03-10T12:51:42.911Z,10.21
2023-03-10T12:52:45.026Z,10.37
2023-03-10T12:53:44.702Z,10.47
2023-03-10T12:54:47.301Z,10.50
2023-03-10T12:55:44.208Z,10.52
2023-03-10T12:56:44.376Z,10.59
2023-03-10T12:58:03.292Z,10.27
2023-03-10T12:59:13.252Z,10.44
2023-03-10T13:00:30.224Z,10.16
2023-03-10T13:01:36.649Z,10.14
2023-03-10T13:02:48.941Z,10.10
2023-03-10T13:03:53.058Z,10.08
2023-03-10T13:04:50.963Z,10.38
2023-03-10T13:06:13.277Z,10.34